Time;durP1;ratioP1;P1;durP2;ratioP2;P2;SDS_P1;SDS_P2;PMS_P1;PMS_P2;Temp;Humidity;BMP_temperature;BMP_pressure;BME280_temperature;BME280_humidity;BME280_pressure;Samples;Min_cycle;Max_cycle;Signal;HPM_P1;HPM_P2
2021/07/28 00:00:35;;;;;;;1.55;1.45;;;27.20;48.50;;;-147.20;100.00;58430.41;5113793;28;20059;-50
2021/07/28 00:03:01;;;;;;;1.50;1.40;;;27.20;48.50;;;-147.20;100.00;58430.41;5113821;28;20476;-51
2021/07/28 00:05:27;;;;;;;1.60;1.50;;;27.10;48.50;;;-147.20;100.00;58430.41;5113804;28;20076;-51
2021/07/28 00:07:53;;;;;;;1.50;1.40;;;27.10;48.50;;;-147.20;100.00;58430.41;5113640;28;20138;-50
2021/07/28 00:10:19;;;;;;;1.35;1.25;;;27.10;48.60;;;-147.20;100.00;58430.41;5113636;28;20054;-48
2021/07/28 00:12:45;;;;;;;1.45;1.35;;;27.10;48.60;;;-147.20;100.00;58430.41;5113707;28;20046;-50
2021/07/28 00:15:12;;;;;;;1.92;1.40;;;27.10;48.60;;;-147.20;100.00;58430.41;5113612;28;20040;-53
2021/07/28 00:17:45;;;;;;;1.67;1.58;;;27.10;48.60;;;-147.20;100.00;58430.41;5113266;28;20540;-49
2021/07/28 00:23:14;;;;;;;1.48;1.38;;;27.10;48.70;;;-147.20;100.00;58430.41;5071852;28;20490;-53
2021/07/28 00:25:44;;;;;;;1.50;1.40;;;27.10;48.70;;;-147.20;100.00;58430.41;5113817;28;20104;-54
2021/07/28 00:28:11;;;;;;;1.50;1.40;;;27.10;48.70;;;-147.20;100.00;58430.41;5113671;28;20390;-54
2021/07/28 00:30:39;;;;;;;1.52;1.42;;;27.00;48.70;;;-147.20;100.00;58430.41;5113375;28;20067;-49
2021/07/28 00:33:05;;;;;;;1.42;1.33;;;27.00;48.70;;;-147.20;100.00;58430.41;5113430;28;20101;-51
2021/07/28 00:35:31;;;;;;;1.42;1.33;;;27.00;48.70;;;-147.20;100.00;58430.41;5113566;28;20051;-55
2021/07/28 00:38:05;;;;;;;1.70;1.60;;;27.00;48.80;;;-147.20;100.00;58430.41;5113474;28;20098;-55
2021/07/28 00:40:31;;;;;;;1.55;1.45;;;27.00;48.80;;;-147.20;100.00;58430.41;5113549;28;20071;-50
2021/07/28 00:43:24;;;;;;;1.40;1.30;;;27.00;49.30;;;-147.20;100.00;58430.41;5113264;28;20126;-52
2021/07/28 00:45:50;;;;;;;1.60;1.50;;;27.00;48.80;;;-147.20;100.00;58430.41;5091282;28;20096;-53
2021/07/28 00:48:16;;;;;;;1.50;1.40;;;27.00;48.80;;;-147.20;100.00;58430.41;5113159;28;22167;-53
2021/07/28 00:50:43;;;;;;;1.63;1.52;;;26.90;48.80;;;-147.20;100.00;58430.41;5113101;28;20051;-53
2021/07/28 00:53:18;;;;;;;1.25;1.20;;;26.90;48.80;;;-147.20;100.00;58430.41;5113500;28;20044;-49
2021/07/28 00:55:46;;;;;;;1.50;1.40;;;26.90;48.80;;;-147.20;100.00;58430.41;5112041;28;20040;-53
2021/07/28 00:58:13;;;;;;;1.52;1.42;;;26.90;48.80;;;-147.20;100.00;58430.41;5112844;28;20491;-53
2021/07/28 01:00:39;;;;;;;1.73;1.63;;;26.90;48.90;;;-147.20;100.00;58430.41;5113379;28;20039;-51
2021/07/28 01:03:05;;;;;;;1.60;1.50;;;26.90;48.90;;;-147.20;100.00;58430.41;5113534;28;20070;-48
2021/07/28 01:05:31;;;;;;;1.75;1.65;;;26.90;48.90;;;-147.20;100.00;58430.41;5112930;28;20052;-49
2021/07/28 01:07:57;;;;;;;1.38;1.27;;;26.90;48.90;;;-147.20;100.00;58430.41;5112868;28;20556;-53
2021/07/28 01:10:23;;;;;;;1.70;1.60;;;26.90;49.00;;;-147.20;100.00;58430.41;5113253;28;20518;-51
2021/07/28 01:12:54;;;;;;;1.50;1.40;;;26.90;49.00;;;-147.20;100.00;58430.41;5113371;28;20044;-51
2021/07/28 01:15:34;;;;;;;;;;;26.90;49.00;;;-147.20;100.00;58430.41;5113353;28;20055;-51
2021/07/28 01:18:02;;;;;;;1.58;1.48;;;26.90;49.00;;;-147.20;100.00;58430.41;5112851;28;20343;-53
2021/07/28 01:20:46;;;;;;;1.55;1.45;;;26.90;49.00;;;-147.20;100.00;58430.41;5112809;28;20082;-53
2021/07/28 01:23:23;;;;;;;1.60;1.50;;;26.80;49.00;;;-147.20;100.00;58430.41;5112725;28;20043;-51
2021/07/28 01:25:51;;;;;;;1.20;1.20;;;26.80;49.00;;;-147.20;100.00;58430.41;5113013;28;20100;-53
2021/07/28 01:28:20;;;;;;;1.42;1.33;;;26.90;49.10;;;-147.20;100.00;58430.41;5112614;28;20101;-50
2021/07/28 01:30:46;;;;;;;1.67;1.58;;;26.90;49.10;;;-147.20;100.00;58430.41;5112999;28;20123;-53
2021/07/28 01:33:12;;;;;;;1.40;1.30;;;26.80;49.10;;;-147.20;100.00;58430.41;5094222;28;20502;-50
2021/07/28 01:35:40;;;;;;;1.50;1.40;;;26.80;49.10;;;-147.20;100.00;58430.41;5112808;28;20047;-49
2021/07/28 01:38:06;;;;;;;1.50;1.40;;;26.80;49.10;;;-147.20;100.00;58430.41;5112369;28;20078;-52
2021/07/28 01:40:39;;;;;;;1.23;1.13;;;26.80;49.10;;;-147.20;100.00;58430.41;5112456;28;20075;-51
2021/07/28 01:43:14;;;;;;;1.50;1.40;;;26.80;49.20;;;-147.20;100.00;58430.41;5112512;28;20112;-53
2021/07/28 01:45:42;;;;;;;1.40;1.30;;;26.80;49.20;;;-147.20;100.00;58430.41;5112789;28;20126;-53
2021/07/28 01:48:10;;;;;;;1.40;1.30;;;26.80;49.20;;;-147.20;100.00;58430.41;5112346;28;20082;-53
2021/07/28 01:50:36;;;;;;;1.50;1.40;;;26.70;49.10;;;-147.20;100.00;58430.41;5111257;28;20134;-54
2021/07/28 01:53:04;;;;;;;1.70;1.60;;;26.80;49.80;;;-147.20;100.00;58430.41;5112361;28;20476;-53
2021/07/28 01:55:30;;;;;;;1.52;1.42;;;26.80;49.20;;;-147.20;100.00;58430.41;5112566;28;20044;-53
2021/07/28 01:57:56;;;;;;;1.65;1.55;;;26.70;49.20;;;-147.20;100.00;58430.41;5112072;28;20087;-49
2021/07/28 02:00:22;;;;;;;1.70;1.60;;;26.70;49.20;;;-147.20;100.00;58430.41;5112272;28;20097;-54
2021/07/28 02:02:48;;;;;;;1.40;1.30;;;26.70;49.20;;;-147.20;100.00;58430.41;5115150;28;20047;-53
2021/07/28 02:05:14;;;;;;;1.65;1.55;;;26.70;49.20;;;-147.20;100.00;58430.41;5115950;28;20052;-52
2021/07/28 02:07:40;;;;;;;1.45;1.35;;;26.70;49.30;;;-147.20;100.00;58430.41;5115732;28;20487;-51
2021/07/28 02:10:06;;;;;;;1.52;1.42;;;26.70;49.30;;;-147.20;100.00;58430.41;5115665;28;20050;-50
2021/07/28 02:12:32;;;;;;;1.38;1.27;;;26.70;49.30;;;-147.20;100.00;58430.41;5115606;28;20062;-52
2021/07/28 02:14:58;;;;;;;1.50;1.40;;;26.70;49.30;;;-147.20;100.00;58430.41;5115486;28;20048;-50
2021/07/28 02:17:24;;;;;;;1.40;1.30;;;26.70;49.40;;;-147.20;100.00;58430.41;5115761;28;20386;-48
2021/07/28 02:19:50;;;;;;;1.70;1.60;;;26.70;49.40;;;-147.20;100.00;58430.41;5115814;28;20052;-51
2021/07/28 02:22:16;;;;;;;1.60;1.50;;;26.70;49.40;;;-147.20;100.00;58430.41;5115865;28;20050;-50
2021/07/28 02:24:42;;;;;;;1.60;1.50;;;26.70;49.50;;;-147.20;100.00;58430.41;5115359;28;20052;-52
2021/07/28 02:27:09;;;;;;;1.50;1.40;;;26.60;49.40;;;-147.20;100.00;58430.41;5115464;28;20060;-51
2021/07/28 02:29:36;;;;;;;1.50;1.40;;;26.60;49.40;;;-147.20;100.00;58430.41;5115338;28;20142;-49
2021/07/28 02:32:03;;;;;;;2.08;1.42;;;26.60;49.40;;;-147.20;100.00;58430.41;5095122;28;20131;-53
2021/07/28 02:34:31;;;;;;;1.40;1.30;;;26.60;49.40;;;-147.20;100.00;58430.41;5115217;28;20483;-49
2021/07/28 02:36:57;;;;;;;1.30;1.20;;;26.60;49.40;;;-147.20;100.00;58430.41;5115421;28;20052;-51
2021/07/28 02:39:22;;;;;;;1.45;1.35;;;26.60;49.40;;;-147.20;100.00;58430.41;5115093;28;20513;-54
2021/07/28 02:41:48;;;;;;;1.60;1.50;;;26.60;49.50;;;-147.20;100.00;58430.41;5115154;28;20043;-50
2021/07/28 02:44:14;;;;;;;1.40;1.30;;;26.60;49.50;;;-147.20;100.00;58430.41;5115340;28;20062;-48
2021/07/28 02:46:40;;;;;;;1.58;1.48;;;26.60;49.50;;;-147.20;100.00;58430.41;5115095;28;20433;-50
2021/07/28 02:49:06;;;;;;;1.50;1.40;;;26.60;49.50;;;-147.20;100.00;58430.41;5113649;28;20039;-47
2021/07/28 02:51:33;;;;;;;1.60;1.50;;;26.60;49.50;;;-147.20;100.00;58430.41;5114994;28;20036;-49
2021/07/28 02:54:00;;;;;;;1.60;1.50;;;26.60;49.60;;;-147.20;100.00;58430.41;5114983;28;20060;-48
2021/07/28 02:56:26;;;;;;;1.30;1.20;;;26.50;49.50;;;-147.20;100.00;58430.41;5113969;28;20460;-48
2021/07/28 02:58:52;;;;;;;1.48;1.38;;;26.50;49.50;;;-147.20;100.00;58430.41;5114906;28;20048;-54
2021/07/28 03:01:18;;;;;;;1.52;1.42;;;26.50;49.60;;;-147.20;100.00;58430.41;5114586;28;20552;-53
2021/07/28 03:03:44;;;;;;;1.60;1.50;;;26.50;49.60;;;-147.20;100.00;58430.41;5114931;28;20051;-49
2021/07/28 03:06:09;;;;;;;1.60;1.50;;;26.50;49.60;;;-147.20;100.00;58430.41;5114707;28;20054;-49
2021/07/28 03:08:35;;;;;;;1.58;1.48;;;26.50;49.60;;;-147.20;100.00;58430.41;5114852;28;20055;-49
2021/07/28 03:11:01;;;;;;;1.75;1.65;;;26.50;49.60;;;-147.20;100.00;58430.41;5114403;28;20419;-52
2021/07/28 03:13:27;;;;;;;1.48;1.38;;;26.50;49.60;;;-147.20;100.00;58430.41;5113949;28;20052;-48
2021/07/28 03:15:52;;;;;;;1.45;1.35;;;26.50;49.60;;;-147.20;100.00;58430.41;5114571;28;20047;-50
2021/07/28 03:18:19;;;;;;;1.35;1.25;;;26.50;49.60;;;-147.20;100.00;58430.41;5095386;28;20063;-50
2021/07/28 03:20:45;;;;;;;1.73;1.63;;;26.50;49.70;;;-147.20;100.00;58430.41;5114514;28;20075;-49
2021/07/28 03:23:10;;;;;;;1.73;1.63;;;26.50;49.70;;;-147.20;100.00;58430.41;5114482;28;20040;-51
2021/07/28 03:25:36;;;;;;;1.63;1.52;;;26.50;49.70;;;-147.20;100.00;58430.41;5096407;28;21354;-46
2021/07/28 03:28:03;;;;;;;1.55;1.45;;;26.50;49.70;;;-147.20;100.00;58430.41;5114462;28;20051;-47
2021/07/28 03:30:28;;;;;;;1.65;1.55;;;26.50;49.70;;;-147.20;100.00;58430.41;5114209;28;20039;-53
2021/07/28 03:32:54;;;;;;;1.65;1.55;;;26.50;49.70;;;-147.20;100.00;58430.41;5114291;28;20107;-49
2021/07/28 03:35:20;;;;;;;1.63;1.52;;;26.50;49.80;;;-147.20;100.00;58430.41;5114180;28;20441;-46
2021/07/28 03:37:46;;;;;;;1.50;1.40;;;26.50;49.80;;;-147.20;100.00;58430.41;5114295;28;20062;-47
2021/07/28 03:40:12;;;;;;;1.60;1.50;;;26.40;49.70;;;-147.20;100.00;58430.41;5114199;28;20051;-49
2021/07/28 03:42:38;;;;;;;1.60;1.50;;;26.40;49.70;;;-147.20;100.00;58430.41;5114719;28;20052;-47
2021/07/28 03:45:04;;;;;;;1.88;1.77;;;26.40;49.70;;;-147.20;100.00;58430.41;5114041;28;20511;-47
2021/07/28 03:47:30;;;;;;;1.70;1.60;;;26.40;49.70;;;-147.20;100.00;58430.41;5113987;28;20556;-47
2021/07/28 03:49:56;;;;;;;1.92;1.77;;;26.40;49.80;;;-147.20;100.00;58430.41;5113878;28;20036;-51
2021/07/28 03:52:21;;;;;;;1.60;1.50;;;26.40;49.80;;;-147.20;100.00;58430.41;5095811;28;20051;-47
2021/07/28 03:54:47;;;;;;;1.40;1.30;;;26.40;49.80;;;-147.20;100.00;58430.41;5114332;28;20135;-49
2021/07/28 03:57:13;;;;;;;1.60;1.50;;;26.40;49.80;;;-147.20;100.00;58430.41;5113889;28;20518;-48
2021/07/28 03:59:39;;;;;;;1.67;1.52;;;26.40;49.80;;;-147.20;100.00;58430.41;5114146;28;20079;-49
2021/07/28 04:02:06;;;;;;;1.52;1.42;;;26.40;49.90;;;-147.20;100.00;58430.41;5114164;28;20044;-47
2021/07/28 04:04:32;;;;;;;1.83;1.73;;;26.40;49.80;;;-147.20;100.00;58430.41;5113797;28;20050;-47
2021/07/28 04:06:58;;;;;;;1.60;1.50;;;26.40;49.80;;;-147.20;100.00;58430.41;5096033;28;20054;-47
2021/07/28 04:09:25;;;;;;;1.70;1.60;;;26.40;49.90;;;-147.20;100.00;58430.41;5113730;28;20040;-48
2021/07/28 04:11:50;;;;;;;1.40;1.30;;;26.40;49.90;;;-147.20;100.00;58430.41;5114039;28;20081;-49
2021/07/28 04:14:16;;;;;;;1.50;1.40;;;26.40;49.90;;;-147.20;100.00;58430.41;5114037;28;20079;-49
2021/07/28 04:16:42;;;;;;;1.70;1.60;;;26.40;49.90;;;-147.20;100.00;58430.41;5113875;28;20048;-52
2021/07/28 04:19:09;;;;;;;1.70;1.60;;;26.40;49.90;;;-147.20;100.00;58430.41;5113540;28;20145;-54
2021/07/28 04:21:36;;;;;;;1.90;1.75;;;26.40;49.90;;;-147.20;100.00;58430.41;5113651;28;20071;-51
2021/07/28 04:24:03;;;;;;;1.90;1.80;;;26.40;49.90;;;-147.20;100.00;58430.41;5113090;28;20047;-51
2021/07/28 04:26:30;;;;;;;1.75;1.65;;;26.40;49.90;;;-147.20;100.00;58430.41;5113545;28;20055;-49
2021/07/28 04:28:57;;;;;;;1.30;1.20;;;26.40;49.90;;;-147.20;100.00;58430.41;5112001;28;20048;-53
2021/07/28 04:31:23;;;;;;;1.77;1.67;;;26.40;49.90;;;-147.20;100.00;58430.41;5113305;28;20044;-50
2021/07/28 04:33:49;;;;;;;1.60;1.50;;;26.40;49.90;;;-147.20;100.00;58430.41;5113234;28;20128;-50
2021/07/28 04:36:15;;;;;;;1.50;1.40;;;26.40;50.40;;;-147.20;100.00;58430.41;5113365;28;20146;-48
2021/07/28 04:38:40;;;;;;;2.10;1.70;;;26.40;49.90;;;-147.20;100.00;58430.41;5113052;28;20048;-53
2021/07/28 04:41:06;;;;;;;1.48;1.38;;;26.40;49.90;;;-147.20;100.00;58430.41;5112941;28;20406;-49
2021/07/28 04:43:32;;;;;;;1.55;1.45;;;26.40;49.90;;;-147.20;100.00;58430.41;5110803;28;20530;-50
2021/07/28 04:46:02;;;;;;;1.70;1.60;;;26.40;49.90;;;-147.20;100.00;58430.41;5113046;28;20506;-50
2021/07/28 04:48:29;;;;;;;1.60;1.50;;;26.40;49.90;;;-147.20;100.00;58430.41;5113364;28;20468;-50
2021/07/28 04:50:56;;;;;;;1.98;1.77;;;26.50;49.90;;;-147.20;100.00;58430.41;5112937;28;20089;-49
2021/07/28 04:53:28;;;;;;;1.92;1.75;;;26.50;49.80;;;-147.20;100.00;58430.41;5113140;28;20079;-45
2021/07/28 04:55:58;;;;;;;1.52;1.42;;;26.60;49.70;;;-147.20;100.00;58430.41;5113071;28;20051;-47
2021/07/28 04:58:24;;;;;;;1.73;1.63;;;26.70;49.50;;;-147.20;100.00;58430.41;5112990;28;20411;-50
2021/07/28 05:00:51;;;;;;;1.50;1.40;;;26.70;49.30;;;-147.20;100.00;58430.41;5077925;28;20086;-51
2021/07/28 05:03:18;;;;;;;2.08;1.98;;;26.90;49.30;;;-147.20;100.00;58430.41;5113024;28;20494;-47
2021/07/28 05:05:45;;;;;;;1.70;1.60;;;26.90;49.10;;;-147.20;100.00;58430.41;5113290;28;20104;-49
2021/07/28 05:08:11;;;;;;;1.90;1.80;;;27.00;49.00;;;-147.20;100.00;58430.41;5113049;28;20044;-48
2021/07/28 05:10:37;;;;;;;1.80;1.70;;;27.00;48.80;;;-147.20;100.00;58430.41;5112946;28;20070;-49
2021/07/28 05:13:03;;;;;;;1.52;1.42;;;27.10;48.60;;;-147.20;100.00;58430.41;5112939;28;20043;-50
2021/07/28 05:15:29;;;;;;;1.70;1.60;;;27.20;48.60;;;-147.20;100.00;58430.41;5112780;28;20047;-50
2021/07/28 05:17:55;;;;;;;1.80;1.70;;;27.20;48.50;;;-147.20;100.00;58430.41;5112778;28;20089;-50
2021/07/28 05:20:21;;;;;;;1.48;1.38;;;27.10;48.40;;;-147.20;100.00;58430.41;5112997;28;20131;-47
2021/07/28 05:22:48;;;;;;;1.55;1.45;;;27.10;48.40;;;-147.20;100.00;58430.41;5094493;28;20044;-51
2021/07/28 05:25:14;;;;;;;1.55;1.45;;;27.20;48.50;;;-147.20;100.00;58430.41;5112987;28;20044;-48
2021/07/28 05:27:40;;;;;;;1.75;1.65;;;27.20;48.50;;;-147.20;100.00;58430.41;5113182;28;20098;-48
2021/07/28 05:30:07;;;;;;;1.60;1.50;;;27.30;48.50;;;-147.20;100.00;58430.41;5112692;28;20052;-49
2021/07/28 05:32:33;;;;;;;1.70;1.60;;;27.30;48.40;;;-147.20;100.00;58430.41;5112635;28;20126;-46
2021/07/28 05:34:59;;;;;;;1.80;1.70;;;27.40;48.30;;;-147.20;100.00;58430.41;5113004;28;20385;-49
2021/07/28 05:37:28;;;;;;;1.48;1.38;;;27.40;48.20;;;-147.20;100.00;58430.41;5114937;28;20043;-47
2021/07/28 05:39:53;;;;;;;1.67;1.58;;;27.40;48.10;;;-147.20;100.00;58430.41;5116062;28;20088;-51
2021/07/28 05:42:19;;;;;;;1.70;1.60;;;27.50;48.00;;;-147.20;100.00;58430.41;5116067;28;20048;-51
2021/07/28 05:44:45;;;;;;;1.70;1.60;;;27.50;48.00;;;-147.20;100.00;58430.41;5116335;28;20056;-48
2021/07/28 05:47:11;;;;;;;1.60;1.50;;;27.50;48.00;;;-147.20;100.00;58430.41;5116281;28;20048;-48
2021/07/28 05:49:36;;;;;;;1.65;1.55;;;27.50;48.00;;;-147.20;100.00;58430.41;5116066;28;20130;-47
2021/07/28 05:52:02;;;;;;;1.45;1.35;;;27.50;48.10;;;-147.20;100.00;58430.41;5115725;28;20093;-47
2021/07/28 05:54:28;;;;;;;1.70;1.60;;;27.40;48.00;;;-147.20;100.00;58430.41;5115568;28;20048;-51
2021/07/28 05:56:54;;;;;;;1.73;1.60;;;27.50;48.10;;;-147.20;100.00;58430.41;5115660;28;20093;-47
2021/07/28 05:59:21;;;;;;;1.55;1.45;;;27.50;48.10;;;-147.20;100.00;58430.41;5114243;28;20055;-49
2021/07/28 06:01:47;;;;;;;1.60;1.50;;;27.50;48.10;;;-147.20;100.00;58430.41;5115599;28;20058;-46
2021/07/28 06:04:13;;;;;;;2.10;1.50;;;27.50;48.10;;;-147.20;100.00;58430.41;5115751;28;20039;-48
2021/07/28 06:06:39;;;;;;;1.70;1.60;;;27.50;48.00;;;-147.20;100.00;58430.41;5116288;28;20049;-48
2021/07/28 06:09:04;;;;;;;1.65;1.55;;;27.50;47.90;;;-147.20;100.00;58430.41;5115856;28;20085;-51
2021/07/28 06:11:30;;;;;;;1.70;1.60;;;27.50;47.90;;;-147.20;100.00;58430.41;5115712;28;20487;-49
2021/07/28 06:13:56;;;;;;;1.88;1.77;;;27.50;47.90;;;-147.20;100.00;58430.41;5115642;28;20075;-48
2021/07/28 06:16:22;;;;;;;1.70;1.60;;;27.50;47.90;;;-147.20;100.00;58430.41;5115522;28;20051;-49
2021/07/28 06:18:48;;;;;;;1.70;1.60;;;27.50;47.90;;;-147.20;100.00;58430.41;5115686;28;20048;-51
2021/07/28 06:21:14;;;;;;;1.67;1.55;;;27.50;47.90;;;-147.20;100.00;58430.41;5115636;28;20369;-52
2021/07/28 06:23:39;;;;;;;1.60;1.50;;;27.60;48.00;;;-147.20;100.00;58430.41;5115384;28;20047;-49
2021/07/28 06:26:05;;;;;;;1.60;1.50;;;27.60;47.90;;;-147.20;100.00;58430.41;5115794;28;20051;-52
2021/07/28 06:28:33;;;;;;;1.65;1.55;;;27.70;47.80;;;-147.20;100.00;58430.41;5095738;28;20130;-52
2021/07/28 06:30:59;;;;;;;1.80;1.70;;;27.80;47.70;;;-147.20;100.00;58430.41;5115194;28;20093;-51
2021/07/28 06:33:24;;;;;;;1.70;1.60;;;27.80;47.50;;;-147.20;100.00;58430.41;5115248;28;20048;-49
2021/07/28 06:35:51;;;;;;;1.80;1.70;;;27.90;47.30;;;-147.20;100.00;58430.41;5115441;28;20066;-52
2021/07/28 06:38:18;;;;;;;1.40;1.30;;;28.00;47.20;;;-147.20;100.00;58430.41;5096730;28;20051;-49
2021/07/28 06:40:45;;;;;;;1.60;1.50;;;28.00;47.10;;;-147.20;100.00;58430.41;5112691;28;20047;-51
2021/07/28 06:43:12;;;;;;;1.70;1.60;;;28.10;47.10;;;-147.20;100.00;58430.41;5114981;28;20044;-51
2021/07/28 06:45:38;;;;;;;1.40;1.30;;;28.10;47.10;;;-147.20;100.00;58430.41;5115136;28;20043;-49
2021/07/28 06:48:04;;;;;;;1.60;1.50;;;28.10;47.00;;;-147.20;100.00;58430.41;5114714;28;20051;-51
2021/07/28 06:50:29;;;;;;;1.77;1.67;;;28.10;47.00;;;-147.20;100.00;58430.41;5115057;28;20139;-49
2021/07/28 06:52:55;;;;;;;1.60;1.50;;;28.10;47.00;;;-147.20;100.00;58430.41;5115224;28;20048;-50
2021/07/28 06:55:21;;;;;;;1.40;1.30;;;28.10;47.00;;;-147.20;100.00;58430.41;5096579;28;20139;-50
2021/07/28 06:57:47;;;;;;;1.85;1.70;;;28.10;46.90;;;-147.20;100.00;58430.41;5114867;28;20134;-49
2021/07/28 07:00:13;;;;;;;1.70;1.60;;;28.10;46.90;;;-147.20;100.00;58430.41;5114769;28;20054;-48
2021/07/28 07:02:39;;;;;;;1.65;1.55;;;28.10;46.80;;;-147.20;100.00;58430.41;5114731;28;20120;-50
2021/07/28 07:05:06;;;;;;;1.98;1.83;;;28.10;46.90;;;-147.20;100.00;58430.41;5114814;28;20551;-50
2021/07/28 07:07:31;;;;;;;2.10;1.90;;;28.20;46.90;;;-147.20;100.00;58430.41;5114701;28;20051;-51
2021/07/28 07:09:57;;;;;;;1.67;1.42;;;28.20;46.80;;;-147.20;100.00;58430.41;5114539;28;20189;-54
2021/07/28 07:12:23;;;;;;;1.70;1.60;;;28.20;46.80;;;-147.20;100.00;58430.41;5114669;28;20040;-51
2021/07/28 07:14:49;;;;;;;1.67;1.58;;;28.20;46.80;;;-147.20;100.00;58430.41;5114664;28;20541;-49
2021/07/28 07:17:16;;;;;;;1.63;1.52;;;28.20;46.80;;;-147.20;100.00;58430.41;5115003;28;20039;-53
2021/07/28 07:19:42;;;;;;;1.95;1.85;;;28.20;46.80;;;-147.20;100.00;58430.41;5114510;28;20055;-48
2021/07/28 07:22:08;;;;;;;1.50;1.40;;;28.20;46.70;;;-147.20;100.00;58430.41;5114426;28;20052;-49
2021/07/28 07:24:35;;;;;;;1.58;1.48;;;28.30;46.70;;;-147.20;100.00;58430.41;5114555;28;20139;-47
2021/07/28 07:27:00;;;;;;;1.80;1.70;;;28.30;46.60;;;-147.20;100.00;58430.41;5114400;28;20051;-47
2021/07/28 07:29:26;;;;;;;1.77;1.63;;;28.40;46.60;;;-147.20;100.00;58430.41;5114211;28;20044;-47
2021/07/28 07:31:52;;;;;;;2.10;1.73;;;28.40;46.50;;;-147.20;100.00;58430.41;5114399;28;20048;-54
2021/07/28 07:34:18;;;;;;;1.80;1.70;;;28.40;46.40;;;-147.20;100.00;58430.41;5114406;28;20463;-49
2021/07/28 07:36:44;;;;;;;1.60;1.50;;;28.50;46.30;;;-147.20;100.00;58430.41;5095781;28;20111;-48
2021/07/28 07:39:09;;;;;;;1.90;1.80;;;28.60;46.20;;;-147.20;100.00;58430.41;5113959;28;20143;-49
2021/07/28 07:41:36;;;;;;;2.10;1.90;;;28.60;46.10;;;-147.20;100.00;58430.41;5114385;28;20050;-49
2021/07/28 07:44:03;;;;;;;1.85;1.73;;;28.60;46.10;;;-147.20;100.00;58430.41;5114081;28;20043;-49
2021/07/28 07:46:29;;;;;;;1.60;1.50;;;28.60;46.10;;;-147.20;100.00;58430.41;5113948;28;20044;-47
2021/07/28 07:48:56;;;;;;;1.92;1.63;;;28.60;46.10;;;-147.20;100.00;58430.41;5094608;28;20044;-46
2021/07/28 07:51:23;;;;;;;1.70;1.60;;;28.60;46.10;;;-147.20;100.00;58430.41;5114041;28;20506;-49
2021/07/28 07:53:49;;;;;;;1.85;1.75;;;28.60;46.00;;;-147.20;100.00;58430.41;5114115;28;20138;-46
2021/07/28 07:56:15;;;;;;;1.90;1.40;;;28.60;46.00;;;-147.20;100.00;58430.41;5112168;28;20483;-49
2021/07/28 07:58:40;;;;;;;1.73;1.63;;;28.60;46.10;;;-147.20;100.00;58430.41;5113108;28;20051;-53
2021/07/28 08:01:08;;;;;;;1.90;1.80;;;28.60;46.10;;;-147.20;100.00;58430.41;5113510;28;20055;-51
2021/07/28 08:03:34;;;;;;;2.20;1.90;;;28.50;46.10;;;-147.20;100.00;58430.41;5113550;28;20052;-53
2021/07/28 08:05:59;;;;;;;2.30;1.65;;;28.50;46.10;;;-147.20;100.00;58430.41;5113713;28;20047;-50
2021/07/28 08:08:25;;;;;;;2.47;1.70;;;28.50;46.10;;;-147.20;100.00;58430.41;5113467;28;20059;-47
2021/07/28 08:10:51;;;;;;;1.90;1.80;;;28.60;46.20;;;-147.20;100.00;58430.41;5113460;28;20419;-51
2021/07/28 08:13:16;;;;;;;1.63;1.52;;;28.60;46.20;;;-147.20;100.00;58430.41;5113648;28;20395;-49
2021/07/28 08:15:42;;;;;;;1.63;1.52;;;28.60;46.20;;;-147.20;100.00;58430.41;5113555;28;20107;-50
2021/07/28 08:18:09;;;;;;;1.80;1.70;;;28.50;46.10;;;-147.20;100.00;58430.41;5095368;28;20384;-51
2021/07/28 08:20:36;;;;;;;1.65;1.55;;;28.50;46.10;;;-147.20;100.00;58430.41;5113559;28;20039;-49
2021/07/28 08:23:03;;;;;;;2.28;1.45;;;28.50;46.20;;;-147.20;100.00;58430.41;5113454;28;20496;-49
2021/07/28 08:25:29;;;;;;;1.83;1.70;;;28.50;46.20;;;-147.20;100.00;58430.41;5093278;28;20044;-51
2021/07/28 08:27:55;;;;;;;2.40;1.77;;;28.50;46.20;;;-147.20;100.00;58430.41;5113759;28;20104;-53
2021/07/28 08:30:21;;;;;;;1.70;1.60;;;28.50;46.10;;;-147.20;100.00;58430.41;5113295;28;20134;-48
2021/07/28 08:32:47;;;;;;;1.85;1.75;;;28.60;46.10;;;-147.20;100.00;58430.41;5113433;28;20052;-50
2021/07/28 08:35:12;;;;;;;1.83;1.73;;;28.60;45.90;;;-147.20;100.00;58430.41;5113520;28;20051;-50
2021/07/28 08:37:40;;;;;;;1.98;1.77;;;28.70;45.90;;;-147.20;100.00;58430.41;5113198;28;20048;-52
2021/07/28 08:40:11;;;;;;;2.85;2.05;;;28.70;45.80;;;-147.20;100.00;58430.41;5113435;28;20051;-47
2021/07/28 08:42:41;;;;;;;1.52;1.42;;;28.80;45.80;;;-147.20;100.00;58430.41;5095279;28;20055;-50
2021/07/28 08:45:08;;;;;;;3.42;1.88;;;28.80;45.70;;;-147.20;100.00;58430.41;5113121;28;20048;-47
2021/07/28 08:47:37;;;;;;;2.30;1.80;;;28.80;45.60;;;-147.20;100.00;58430.41;5113288;28;20055;-50
2021/07/28 08:50:08;;;;;;;2.45;2.20;;;28.90;45.60;;;-147.20;100.00;58430.41;5113391;28;20139;-50
2021/07/28 08:52:35;;;;;;;2.72;2.00;;;28.90;45.50;;;-147.20;100.00;58430.41;5113117;28;20043;-47
2021/07/28 08:55:02;;;;;;;2.55;1.88;;;28.90;45.40;;;-147.20;100.00;58430.41;5113002;28;20043;-49
2021/07/28 08:57:31;;;;;;;2.28;1.83;;;29.00;45.40;;;-147.20;100.00;58430.41;5113022;28;20406;-54
2021/07/28 08:59:57;;;;;;;1.90;1.70;;;29.00;45.80;;;-147.20;100.00;58430.41;5112954;28;20055;-52
2021/07/28 09:02:24;;;;;;;2.13;1.90;;;29.00;45.20;;;-147.20;100.00;58430.41;5112935;28;20047;-49
2021/07/28 09:04:50;;;;;;;2.67;1.88;;;29.10;45.30;;;-147.20;100.00;58430.41;5112906;28;20067;-52
2021/07/28 09:07:16;;;;;;;2.00;1.80;;;29.10;45.30;;;-147.20;100.00;58430.41;5094439;28;20039;-50
2021/07/28 09:09:54;;;;;;;4.32;2.40;;;29.10;45.30;;;-147.20;100.00;58430.41;5112737;28;20399;-54
2021/07/28 09:12:35;;;;;;;2.33;1.88;;;29.00;45.20;;;-147.20;100.00;58430.41;5115153;28;20047;-51
2021/07/28 09:15:05;;;;;;;2.15;1.83;;;29.10;45.20;;;-147.20;100.00;58430.41;5116848;28;20040;-54
2021/07/28 09:17:35;;;;;;;3.83;2.45;;;29.10;45.20;;;-147.20;100.00;58430.41;5116284;28;20048;-51
2021/07/28 09:20:03;;;;;;;2.17;1.95;;;29.00;45.20;;;-147.20;100.00;58430.41;5116394;28;20403;-55
2021/07/28 09:22:39;;;;;;;2.80;1.75;;;29.00;45.20;;;-147.20;100.00;58430.41;5116423;28;20081;-50
2021/07/28 09:25:31;;;;;;;2.55;2.00;;;29.00;45.30;;;-147.20;100.00;58430.41;5116753;28;20043;-50
2021/07/28 09:27:57;;;;;;;2.15;1.95;;;29.00;45.30;;;-147.20;100.00;58430.41;5116394;28;20050;-53
2021/07/28 09:30:23;;;;;;;3.83;2.15;;;29.00;45.30;;;-147.20;100.00;58430.41;5116589;28;20134;-52
2021/07/28 09:33:04;;;;;;;2.97;2.40;;;29.00;45.40;;;-147.20;100.00;58430.41;5116158;28;20056;-53
2021/07/28 09:35:48;;;;;;;5.03;2.65;;;29.00;45.40;;;-147.20;100.00;58430.41;5097496;28;20437;-50
2021/07/28 09:38:45;;;;;;;3.63;2.22;;;29.00;45.40;;;-147.20;100.00;58430.41;5116360;28;20131;-53
2021/07/28 09:41:17;;;;;;;3.65;2.20;;;29.00;45.30;;;-147.20;100.00;58430.41;5116294;28;20048;-50
2021/07/28 09:44:22;;;;;;;2.38;2.13;;;29.00;45.30;;;-147.20;100.00;58430.41;5115898;28;20051;-50
2021/07/28 09:46:50;;;;;;;3.38;2.30;;;29.00;45.30;;;-147.20;100.00;58430.41;5098004;28;20063;-52
2021/07/28 09:49:19;;;;;;;5.57;2.38;;;28.90;45.20;;;-147.20;100.00;58430.41;5115726;28;20047;-49
2021/07/28 09:51:46;;;;;;;3.35;2.40;;;29.00;45.30;;;-147.20;100.00;58430.41;5115728;28;20071;-52
2021/07/28 09:54:15;;;;;;;2.70;2.10;;;29.00;45.30;;;-147.20;100.00;58430.41;5115856;28;20047;-52
2021/07/28 09:56:48;;;;;;;2.72;2.00;;;29.00;45.30;;;-147.20;100.00;58430.41;5115774;28;20055;-52
2021/07/28 09:59:15;;;;;;;3.13;2.03;;;29.00;45.30;;;-147.20;100.00;58430.41;5116272;28;20112;-50
2021/07/28 10:01:46;;;;;;;2.15;1.60;;;29.00;45.20;;;-147.20;100.00;58430.41;5114329;28;20040;-51
2021/07/28 10:04:15;;;;;;;2.83;2.30;;;29.00;45.20;;;-147.20;100.00;58430.41;5116106;28;20086;-54